sensor_id;sensor_type;location;lat;lon;timestamp;P1;durP1;ratioP1;P2;durP2;ratioP2
83423;SDS011;73355;49.044;8.686;2023-11-22T00:00:10;0.90;;;0.77;;
83423;SDS011;73355;49.044;8.686;2023-11-22T00:02:37;1.10;;;0.70;;
83423;SDS011;73355;49.044;8.686;2023-11-22T00:07:28;1.25;;;0.90;;
83423;SDS011;73355;49.044;8.686;2023-11-22T00:12:19;1.45;;;0.75;;
83423;SDS011;73355;49.044;8.686;2023-11-22T00:14:44;1.40;;;0.90;;
83423;SDS011;73355;49.044;8.686;2023-11-22T00:17:11;1.58;;;1.00;;
83423;SDS011;73355;49.044;8.686;2023-11-22T00:19:37;1.10;;;0.90;;
83423;SDS011;73355;49.044;8.686;2023-11-22T00:22:03;1.10;;;0.70;;
83423;SDS011;73355;49.044;8.686;2023-11-22T00:24:36;1.23;;;0.70;;
83423;SDS011;73355;49.044;8.686;2023-11-22T00:27:02;1.77;;;1.02;;
83423;SDS011;73355;49.044;8.686;2023-11-22T00:31:52;1.00;;;0.80;;
83423;SDS011;73355;49.044;8.686;2023-11-22T00:36:43;1.30;;;0.90;;
83423;SDS011;73355;49.044;8.686;2023-11-22T00:41:37;1.73;;;0.80;;
83423;SDS011;73355;49.044;8.686;2023-11-22T00:44:03;1.13;;;0.80;;
83423;SDS011;73355;49.044;8.686;2023-11-22T00:48:54;0.87;;;0.70;;
83423;SDS011;73355;49.044;8.686;2023-11-22T00:51:21;1.73;;;1.00;;
83423;SDS011;73355;49.044;8.686;2023-11-22T00:53:47;1.20;;;0.90;;
83423;SDS011;73355;49.044;8.686;2023-11-22T00:58:37;0.77;;;0.63;;
83423;SDS011;73355;49.044;8.686;2023-11-22T01:03:28;1.40;;;0.70;;
83423;SDS011;73355;49.044;8.686;2023-11-22T01:08:18;0.97;;;0.70;;
83423;SDS011;73355;49.044;8.686;2023-11-22T01:13:09;1.00;;;0.70;;
83423;SDS011;73355;49.044;8.686;2023-11-22T01:18:00;0.90;;;0.70;;
83423;SDS011;73355;49.044;8.686;2023-11-22T01:22:50;1.10;;;0.70;;
83423;SDS011;73355;49.044;8.686;2023-11-22T01:27:41;1.10;;;0.80;;
83423;SDS011;73355;49.044;8.686;2023-11-22T01:30:06;1.10;;;0.77;;
83423;SDS011;73355;49.044;8.686;2023-11-22T01:32:34;1.05;;;0.80;;
83423;SDS011;73355;49.044;8.686;2023-11-22T01:37:25;1.00;;;0.70;;
83423;SDS011;73355;49.044;8.686;2023-11-22T01:39:52;0.90;;;0.70;;
83423;SDS011;73355;49.044;8.686;2023-11-22T01:42:19;0.68;;;0.60;;
83423;SDS011;73355;49.044;8.686;2023-11-22T01:47:10;1.17;;;0.80;;
83423;SDS011;73355;49.044;8.686;2023-11-22T01:52:01;0.65;;;0.55;;
83423;SDS011;73355;49.044;8.686;2023-11-22T01:54:29;0.77;;;0.60;;
83423;SDS011;73355;49.044;8.686;2023-11-22T01:56:55;0.60;;;0.57;;
83423;SDS011;73355;49.044;8.686;2023-11-22T01:59:20;1.40;;;0.80;;
83423;SDS011;73355;49.044;8.686;2023-11-22T02:04:12;1.35;;;0.73;;
83423;SDS011;73355;49.044;8.686;2023-11-22T02:06:37;1.05;;;0.70;;
83423;SDS011;73355;49.044;8.686;2023-11-22T02:11:28;1.30;;;0.90;;
83423;SDS011;73355;49.044;8.686;2023-11-22T02:16:19;0.50;;;0.50;;
83423;SDS011;73355;49.044;8.686;2023-11-22T02:21:10;1.00;;;0.70;;
83423;SDS011;73355;49.044;8.686;2023-11-22T02:26:01;0.93;;;0.70;;
83423;SDS011;73355;49.044;8.686;2023-11-22T02:30:52;0.90;;;0.70;;
83423;SDS011;73355;49.044;8.686;2023-11-22T02:33:19;1.35;;;0.70;;
83423;SDS011;73355;49.044;8.686;2023-11-22T02:38:10;1.20;;;0.70;;
83423;SDS011;73355;49.044;8.686;2023-11-22T02:43:00;0.97;;;0.77;;
83423;SDS011;73355;49.044;8.686;2023-11-22T02:45:30;1.40;;;0.80;;
83423;SDS011;73355;49.044;8.686;2023-11-22T02:50:21;1.00;;;0.70;;
83423;SDS011;73355;49.044;8.686;2023-11-22T02:55:12;1.10;;;0.70;;
83423;SDS011;73355;49.044;8.686;2023-11-22T03:00:04;0.93;;;0.70;;
83423;SDS011;73355;49.044;8.686;2023-11-22T03:04:57;0.90;;;0.60;;
83423;SDS011;73355;49.044;8.686;2023-11-22T03:07:23;0.73;;;0.60;;
83423;SDS011;73355;49.044;8.686;2023-11-22T03:09:49;1.00;;;0.70;;
83423;SDS011;73355;49.044;8.686;2023-11-22T03:12:15;1.67;;;0.80;;
83423;SDS011;73355;49.044;8.686;2023-11-22T03:14:41;1.38;;;0.60;;
83423;SDS011;73355;49.044;8.686;2023-11-22T03:17:06;1.33;;;0.80;;
83423;SDS011;73355;49.044;8.686;2023-11-22T03:21:58;1.58;;;0.60;;
83423;SDS011;73355;49.044;8.686;2023-11-22T03:24:24;0.90;;;0.70;;
83423;SDS011;73355;49.044;8.686;2023-11-22T03:26:50;1.17;;;0.67;;
83423;SDS011;73355;49.044;8.686;2023-11-22T03:29:15;0.90;;;0.70;;
83423;SDS011;73355;49.044;8.686;2023-11-22T03:31:43;1.45;;;0.80;;
83423;SDS011;73355;49.044;8.686;2023-11-22T03:34:09;1.10;;;0.70;;
83423;SDS011;73355;49.044;8.686;2023-11-22T03:36:34;0.85;;;0.65;;
83423;SDS011;73355;49.044;8.686;2023-11-22T03:39:00;1.40;;;0.90;;
83423;SDS011;73355;49.044;8.686;2023-11-22T03:41:25;0.87;;;0.60;;
83423;SDS011;73355;49.044;8.686;2023-11-22T03:46:16;1.17;;;0.70;;
83423;SDS011;73355;49.044;8.686;2023-11-22T03:51:07;0.90;;;0.68;;
83423;SDS011;73355;49.044;8.686;2023-11-22T03:55:58;0.80;;;0.60;;
83423;SDS011;73355;49.044;8.686;2023-11-22T03:58:23;0.88;;;0.65;;
83423;SDS011;73355;49.044;8.686;2023-11-22T04:03:16;0.82;;;0.60;;
83423;SDS011;73355;49.044;8.686;2023-11-22T04:05:43;0.47;;;0.47;;
83423;SDS011;73355;49.044;8.686;2023-11-22T04:08:09;1.08;;;0.70;;
83423;SDS011;73355;49.044;8.686;2023-11-22T04:12:59;0.97;;;0.60;;
83423;SDS011;73355;49.044;8.686;2023-11-22T04:17:51;0.90;;;0.60;;
83423;SDS011;73355;49.044;8.686;2023-11-22T04:20:19;0.80;;;0.60;;
83423;SDS011;73355;49.044;8.686;2023-11-22T04:22:45;0.68;;;0.60;;
83423;SDS011;73355;49.044;8.686;2023-11-22T04:25:10;0.98;;;0.77;;
83423;SDS011;73355;49.044;8.686;2023-11-22T04:27:38;1.02;;;0.70;;
83423;SDS011;73355;49.044;8.686;2023-11-22T04:30:05;0.85;;;0.63;;
83423;SDS011;73355;49.044;8.686;2023-11-22T04:32:33;0.65;;;0.50;;
83423;SDS011;73355;49.044;8.686;2023-11-22T04:35:02;1.10;;;0.80;;
83423;SDS011;73355;49.044;8.686;2023-11-22T04:37:31;0.90;;;0.60;;
83423;SDS011;73355;49.044;8.686;2023-11-22T04:39:57;1.00;;;0.80;;
83423;SDS011;73355;49.044;8.686;2023-11-22T04:42:26;0.75;;;0.52;;
83423;SDS011;73355;49.044;8.686;2023-11-22T04:47:17;0.90;;;0.60;;
83423;SDS011;73355;49.044;8.686;2023-11-22T04:52:08;0.80;;;0.63;;
83423;SDS011;73355;49.044;8.686;2023-11-22T04:54:33;0.80;;;0.60;;
83423;SDS011;73355;49.044;8.686;2023-11-22T04:59:24;0.80;;;0.60;;
83423;SDS011;73355;49.044;8.686;2023-11-22T05:04:15;0.97;;;0.70;;
83423;SDS011;73355;49.044;8.686;2023-11-22T05:09:05;0.70;;;0.60;;
83423;SDS011;73355;49.044;8.686;2023-11-22T05:13:56;0.68;;;0.50;;
83423;SDS011;73355;49.044;8.686;2023-11-22T05:16:21;0.87;;;0.60;;
83423;SDS011;73355;49.044;8.686;2023-11-22T05:21:12;0.90;;;0.60;;
83423;SDS011;73355;49.044;8.686;2023-11-22T05:26:02;0.60;;;0.60;;
83423;SDS011;73355;49.044;8.686;2023-11-22T05:28:30;1.00;;;0.77;;
83423;SDS011;73355;49.044;8.686;2023-11-22T05:30:55;1.00;;;0.63;;
83423;SDS011;73355;49.044;8.686;2023-11-22T05:33:21;0.90;;;0.60;;
83423;SDS011;73355;49.044;8.686;2023-11-22T05:38:11;0.63;;;0.60;;
83423;SDS011;73355;49.044;8.686;2023-11-22T05:43:02;0.97;;;0.60;;
83423;SDS011;73355;49.044;8.686;2023-11-22T05:47:53;1.00;;;0.63;;
83423;SDS011;73355;49.044;8.686;2023-11-22T05:52:43;1.00;;;0.67;;
83423;SDS011;73355;49.044;8.686;2023-11-22T05:57:34;0.70;;;0.60;;
83423;SDS011;73355;49.044;8.686;2023-11-22T06:02:25;0.93;;;0.60;;
83423;SDS011;73355;49.044;8.686;2023-11-22T06:07:15;0.60;;;0.50;;
83423;SDS011;73355;49.044;8.686;2023-11-22T06:12:06;0.60;;;0.50;;
83423;SDS011;73355;49.044;8.686;2023-11-22T06:16:57;0.85;;;0.70;;
83423;SDS011;73355;49.044;8.686;2023-11-22T06:21:48;0.63;;;0.63;;
83423;SDS011;73355;49.044;8.686;2023-11-22T06:26:42;0.55;;;0.47;;
83423;SDS011;73355;49.044;8.686;2023-11-22T06:29:08;0.77;;;0.70;;
83423;SDS011;73355;49.044;8.686;2023-11-22T06:31:33;0.60;;;0.60;;
83423;SDS011;73355;49.044;8.686;2023-11-22T06:36:26;0.63;;;0.60;;
83423;SDS011;73355;49.044;8.686;2023-11-22T06:38:52;1.08;;;0.70;;
83423;SDS011;73355;49.044;8.686;2023-11-22T06:41:18;0.85;;;0.60;;
83423;SDS011;73355;49.044;8.686;2023-11-22T06:46:08;0.80;;;0.70;;
83423;SDS011;73355;49.044;8.686;2023-11-22T06:50:59;0.90;;;0.60;;
83423;SDS011;73355;49.044;8.686;2023-11-22T06:53:24;1.10;;;0.67;;
83423;SDS011;73355;49.044;8.686;2023-11-22T06:55:50;0.95;;;0.70;;
83423;SDS011;73355;49.044;8.686;2023-11-22T06:58:16;0.70;;;0.50;;
83423;SDS011;73355;49.044;8.686;2023-11-22T07:00:42;0.98;;;0.60;;
83423;SDS011;73355;49.044;8.686;2023-11-22T07:03:09;0.70;;;0.60;;
83423;SDS011;73355;49.044;8.686;2023-11-22T07:05:35;1.00;;;0.60;;
83423;SDS011;73355;49.044;8.686;2023-11-22T07:08:01;1.02;;;0.60;;
83423;SDS011;73355;49.044;8.686;2023-11-22T07:12:52;0.80;;;0.67;;
83423;SDS011;73355;49.044;8.686;2023-11-22T07:15:17;0.80;;;0.60;;
83423;SDS011;73355;49.044;8.686;2023-11-22T07:20:08;1.17;;;0.80;;
83423;SDS011;73355;49.044;8.686;2023-11-22T07:22:37;0.95;;;0.70;;
83423;SDS011;73355;49.044;8.686;2023-11-22T07:25:03;0.80;;;0.60;;
83423;SDS011;73355;49.044;8.686;2023-11-22T07:29:53;0.67;;;0.60;;
83423;SDS011;73355;49.044;8.686;2023-11-22T07:34:47;0.57;;;0.50;;
83423;SDS011;73355;49.044;8.686;2023-11-22T07:37:13;0.85;;;0.65;;
83423;SDS011;73355;49.044;8.686;2023-11-22T07:39:39;1.45;;;0.98;;
83423;SDS011;73355;49.044;8.686;2023-11-22T07:42:07;2.17;;;1.40;;
83423;SDS011;73355;49.044;8.686;2023-11-22T07:46:59;1.75;;;1.10;;
83423;SDS011;73355;49.044;8.686;2023-11-22T07:49:25;2.03;;;1.10;;
83423;SDS011;73355;49.044;8.686;2023-11-22T07:54:17;2.42;;;0.77;;
83423;SDS011;73355;49.044;8.686;2023-11-22T07:56:43;2.00;;;0.85;;
83423;SDS011;73355;49.044;8.686;2023-11-22T08:01:36;1.60;;;0.88;;
83423;SDS011;73355;49.044;8.686;2023-11-22T08:06:27;2.05;;;0.90;;
83423;SDS011;73355;49.044;8.686;2023-11-22T08:11:18;2.15;;;0.70;;
83423;SDS011;73355;49.044;8.686;2023-11-22T08:16:10;2.30;;;0.90;;
83423;SDS011;73355;49.044;8.686;2023-11-22T08:21:01;2.00;;;1.00;;
83423;SDS011;73355;49.044;8.686;2023-11-22T08:25:56;1.10;;;0.80;;
83423;SDS011;73355;49.044;8.686;2023-11-22T08:28:22;3.97;;;1.10;;
83423;SDS011;73355;49.044;8.686;2023-11-22T08:33:13;2.60;;;1.10;;
83423;SDS011;73355;49.044;8.686;2023-11-22T08:38:04;1.87;;;0.90;;
83423;SDS011;73355;49.044;8.686;2023-11-22T08:40:33;2.10;;;1.20;;
83423;SDS011;73355;49.044;8.686;2023-11-22T08:43:01;2.75;;;1.10;;
83423;SDS011;73355;49.044;8.686;2023-11-22T08:45:29;2.10;;;0.90;;
83423;SDS011;73355;49.044;8.686;2023-11-22T08:47:54;3.00;;;1.10;;
83423;SDS011;73355;49.044;8.686;2023-11-22T08:50:19;2.42;;;1.10;;
83423;SDS011;73355;49.044;8.686;2023-11-22T08:52:45;3.53;;;1.40;;
83423;SDS011;73355;49.044;8.686;2023-11-22T08:55:12;2.22;;;1.15;;
83423;SDS011;73355;49.044;8.686;2023-11-22T08:57:40;2.58;;;1.20;;
83423;SDS011;73355;49.044;8.686;2023-11-22T09:00:05;2.20;;;1.13;;
83423;SDS011;73355;49.044;8.686;2023-11-22T09:02:36;1.30;;;0.90;;
83423;SDS011;73355;49.044;8.686;2023-11-22T09:05:02;2.38;;;1.10;;
83423;SDS011;73355;49.044;8.686;2023-11-22T09:07:31;2.15;;;1.25;;
83423;SDS011;73355;49.044;8.686;2023-11-22T09:09:57;2.35;;;0.80;;
83423;SDS011;73355;49.044;8.686;2023-11-22T09:12:23;2.00;;;0.98;;
83423;SDS011;73355;49.044;8.686;2023-11-22T09:14:48;2.30;;;1.20;;
83423;SDS011;73355;49.044;8.686;2023-11-22T09:19:39;3.47;;;1.30;;
83423;SDS011;73355;49.044;8.686;2023-11-22T09:22:04;1.67;;;1.10;;
83423;SDS011;73355;49.044;8.686;2023-11-22T09:24:31;2.13;;;1.08;;
83423;SDS011;73355;49.044;8.686;2023-11-22T09:26:57;2.85;;;1.13;;
83423;SDS011;73355;49.044;8.686;2023-11-22T09:29:22;1.67;;;1.13;;
83423;SDS011;73355;49.044;8.686;2023-11-22T09:31:48;1.80;;;1.00;;
83423;SDS011;73355;49.044;8.686;2023-11-22T09:34:17;2.92;;;1.05;;
83423;SDS011;73355;49.044;8.686;2023-11-22T09:36:42;3.70;;;1.25;;
83423;SDS011;73355;49.044;8.686;2023-11-22T09:39:07;2.47;;;1.17;;
83423;SDS011;73355;49.044;8.686;2023-11-22T09:44:01;2.05;;;1.10;;
83423;SDS011;73355;49.044;8.686;2023-11-22T09:46:26;1.98;;;1.05;;
83423;SDS011;73355;49.044;8.686;2023-11-22T09:48:52;1.77;;;1.10;;
83423;SDS011;73355;49.044;8.686;2023-11-22T09:51:22;1.85;;;1.10;;
83423;SDS011;73355;49.044;8.686;2023-11-22T09:53:55;3.03;;;1.25;;
83423;SDS011;73355;49.044;8.686;2023-11-22T09:56:24;1.75;;;1.20;;
83423;SDS011;73355;49.044;8.686;2023-11-22T09:58:53;2.65;;;1.23;;
83423;SDS011;73355;49.044;8.686;2023-11-22T10:01:21;2.97;;;1.00;;
83423;SDS011;73355;49.044;8.686;2023-11-22T10:03:47;1.75;;;1.20;;
83423;SDS011;73355;49.044;8.686;2023-11-22T10:06:13;2.08;;;1.20;;
83423;SDS011;73355;49.044;8.686;2023-11-22T10:08:40;1.95;;;1.25;;
83423;SDS011;73355;49.044;8.686;2023-11-22T10:11:06;1.98;;;1.10;;
83423;SDS011;73355;49.044;8.686;2023-11-22T10:13:31;1.45;;;1.05;;
83423;SDS011;73355;49.044;8.686;2023-11-22T10:18:34;2.13;;;1.30;;
83423;SDS011;73355;49.044;8.686;2023-11-22T10:20:59;2.43;;;1.20;;
83423;SDS011;73355;49.044;8.686;2023-11-22T10:23:28;1.55;;;1.05;;
83423;SDS011;73355;49.044;8.686;2023-11-22T10:25:54;1.95;;;1.20;;
83423;SDS011;73355;49.044;8.686;2023-11-22T10:28:21;2.00;;;1.17;;
83423;SDS011;73355;49.044;8.686;2023-11-22T10:30:50;2.00;;;1.10;;
83423;SDS011;73355;49.044;8.686;2023-11-22T10:33:16;1.92;;;1.00;;
83423;SDS011;73355;49.044;8.686;2023-11-22T10:35:46;2.08;;;1.20;;
83423;SDS011;73355;49.044;8.686;2023-11-22T10:38:13;1.60;;;1.00;;
83423;SDS011;73355;49.044;8.686;2023-11-22T10:40:39;2.28;;;1.10;;
83423;SDS011;73355;49.044;8.686;2023-11-22T10:43:06;2.22;;;1.20;;
83423;SDS011;73355;49.044;8.686;2023-11-22T10:45:33;2.35;;;1.17;;
83423;SDS011;73355;49.044;8.686;2023-11-22T10:48:00;2.72;;;1.00;;
83423;SDS011;73355;49.044;8.686;2023-11-22T10:50:25;2.08;;;1.35;;
83423;SDS011;73355;49.044;8.686;2023-11-22T10:52:51;2.53;;;1.25;;
83423;SDS011;73355;49.044;8.686;2023-11-22T10:55:20;2.35;;;1.20;;
83423;SDS011;73355;49.044;8.686;2023-11-22T10:57:47;1.75;;;0.90;;
83423;SDS011;73355;49.044;8.686;2023-11-22T11:00:16;2.53;;;1.20;;
83423;SDS011;73355;49.044;8.686;2023-11-22T11:02:47;2.92;;;1.20;;
83423;SDS011;73355;49.044;8.686;2023-11-22T11:05:20;2.30;;;1.10;;
83423;SDS011;73355;49.044;8.686;2023-11-22T11:07:49;1.33;;;1.00;;
83423;SDS011;73355;49.044;8.686;2023-11-22T11:10:20;2.08;;;1.00;;
83423;SDS011;73355;49.044;8.686;2023-11-22T11:12:46;1.65;;;1.10;;
83423;SDS011;73355;49.044;8.686;2023-11-22T11:15:12;2.03;;;1.02;;
83423;SDS011;73355;49.044;8.686;2023-11-22T11:17:39;2.95;;;0.88;;
83423;SDS011;73355;49.044;8.686;2023-11-22T11:20:05;1.30;;;1.00;;
83423;SDS011;73355;49.044;8.686;2023-11-22T11:22:34;2.03;;;1.30;;
83423;SDS011;73355;49.044;8.686;2023-11-22T11:25:04;1.60;;;1.17;;
83423;SDS011;73355;49.044;8.686;2023-11-22T11:27:33;1.60;;;0.95;;
83423;SDS011;73355;49.044;8.686;2023-11-22T11:30:00;3.33;;;1.00;;
83423;SDS011;73355;49.044;8.686;2023-11-22T11:32:32;2.33;;;1.17;;
83423;SDS011;73355;49.044;8.686;2023-11-22T11:34:57;1.55;;;0.90;;
83423;SDS011;73355;49.044;8.686;2023-11-22T11:37:25;2.00;;;1.10;;
83423;SDS011;73355;49.044;8.686;2023-11-22T11:39:50;1.90;;;1.10;;
83423;SDS011;73355;49.044;8.686;2023-11-22T11:42:15;2.17;;;1.27;;
83423;SDS011;73355;49.044;8.686;2023-11-22T11:47:36;2.03;;;1.42;;
83423;SDS011;73355;49.044;8.686;2023-11-22T11:50:01;3.70;;;1.50;;
83423;SDS011;73355;49.044;8.686;2023-11-22T11:52:27;1.75;;;1.25;;
83423;SDS011;73355;49.044;8.686;2023-11-22T11:54:52;1.37;;;0.93;;
83423;SDS011;73355;49.044;8.686;2023-11-22T11:57:18;2.07;;;1.03;;
83423;SDS011;73355;49.044;8.686;2023-11-22T11:59:44;1.90;;;1.20;;
83423;SDS011;73355;49.044;8.686;2023-11-22T12:02:11;4.18;;;1.23;;
83423;SDS011;73355;49.044;8.686;2023-11-22T12:04:36;1.37;;;1.00;;
83423;SDS011;73355;49.044;8.686;2023-11-22T12:07:02;1.83;;;1.17;;
83423;SDS011;73355;49.044;8.686;2023-11-22T12:09:27;2.42;;;1.00;;
83423;SDS011;73355;49.044;8.686;2023-11-22T12:11:54;1.92;;;1.13;;
83423;SDS011;73355;49.044;8.686;2023-11-22T12:14:20;1.73;;;1.20;;
83423;SDS011;73355;49.044;8.686;2023-11-22T12:16:47;2.17;;;1.00;;
83423;SDS011;73355;49.044;8.686;2023-11-22T12:19:25;2.22;;;1.17;;
83423;SDS011;73355;49.044;8.686;2023-11-22T12:21:53;1.33;;;1.10;;
83423;SDS011;73355;49.044;8.686;2023-11-22T12:24:19;2.60;;;1.10;;
83423;SDS011;73355;49.044;8.686;2023-11-22T12:26:47;1.60;;;1.15;;
83423;SDS011;73355;49.044;8.686;2023-11-22T12:29:19;1.98;;;1.13;;
83423;SDS011;73355;49.044;8.686;2023-11-22T12:31:45;1.70;;;1.05;;
83423;SDS011;73355;49.044;8.686;2023-11-22T12:34:11;1.23;;;0.90;;
83423;SDS011;73355;49.044;8.686;2023-11-22T12:36:38;2.10;;;1.20;;
83423;SDS011;73355;49.044;8.686;2023-11-22T12:39:08;1.50;;;0.95;;
83423;SDS011;73355;49.044;8.686;2023-11-22T12:41:41;1.98;;;1.20;;
83423;SDS011;73355;49.044;8.686;2023-11-22T12:44:07;3.33;;;1.35;;
83423;SDS011;73355;49.044;8.686;2023-11-22T12:49:15;1.20;;;1.00;;
83423;SDS011;73355;49.044;8.686;2023-11-22T12:51:50;1.40;;;0.90;;
83423;SDS011;73355;49.044;8.686;2023-11-22T12:54:17;1.65;;;1.00;;
83423;SDS011;73355;49.044;8.686;2023-11-22T12:56:46;1.88;;;1.20;;
83423;SDS011;73355;49.044;8.686;2023-11-22T12:59:15;1.00;;;0.80;;
83423;SDS011;73355;49.044;8.686;2023-11-22T13:01:40;1.40;;;0.93;;
83423;SDS011;73355;49.044;8.686;2023-11-22T13:06:32;1.40;;;0.90;;
83423;SDS011;73355;49.044;8.686;2023-11-22T13:08:57;1.60;;;0.93;;
83423;SDS011;73355;49.044;8.686;2023-11-22T13:11:22;1.60;;;0.90;;
83423;SDS011;73355;49.044;8.686;2023-11-22T13:13:49;1.95;;;1.00;;
83423;SDS011;73355;49.044;8.686;2023-11-22T13:16:14;1.27;;;0.90;;
83423;SDS011;73355;49.044;8.686;2023-11-22T13:18:41;1.77;;;1.10;;
83423;SDS011;73355;49.044;8.686;2023-11-22T13:21:06;1.20;;;0.77;;
83423;SDS011;73355;49.044;8.686;2023-11-22T13:25:58;1.33;;;0.90;;
83423;SDS011;73355;49.044;8.686;2023-11-22T13:28:23;1.63;;;1.05;;
83423;SDS011;73355;49.044;8.686;2023-11-22T13:30:50;1.10;;;0.90;;
83423;SDS011;73355;49.044;8.686;2023-11-22T13:33:16;2.28;;;1.15;;
83423;SDS011;73355;49.044;8.686;2023-11-22T13:38:07;3.83;;;1.10;;
83423;SDS011;73355;49.044;8.686;2023-11-22T13:40:36;1.90;;;1.17;;
83423;SDS011;73355;49.044;8.686;2023-11-22T13:43:04;2.83;;;1.05;;
83423;SDS011;73355;49.044;8.686;2023-11-22T13:45:30;2.88;;;1.10;;
83423;SDS011;73355;49.044;8.686;2023-11-22T13:47:55;1.70;;;1.00;;
83423;SDS011;73355;49.044;8.686;2023-11-22T13:50:28;2.30;;;1.23;;
83423;SDS011;73355;49.044;8.686;2023-11-22T13:52:55;1.83;;;1.15;;
83423;SDS011;73355;49.044;8.686;2023-11-22T13:55:21;2.55;;;1.20;;
83423;SDS011;73355;49.044;8.686;2023-11-22T14:00:16;2.92;;;2.17;;
83423;SDS011;73355;49.044;8.686;2023-11-22T14:02:50;1.80;;;1.20;;
83423;SDS011;73355;49.044;8.686;2023-11-22T14:05:17;3.35;;;1.30;;
83423;SDS011;73355;49.044;8.686;2023-11-22T14:07:43;1.63;;;1.15;;
83423;SDS011;73355;49.044;8.686;2023-11-22T14:12:36;2.83;;;1.58;;
83423;SDS011;73355;49.044;8.686;2023-11-22T14:15:02;1.58;;;1.23;;
83423;SDS011;73355;49.044;8.686;2023-11-22T14:17:29;2.35;;;1.20;;
83423;SDS011;73355;49.044;8.686;2023-11-22T14:19:55;1.73;;;1.15;;
83423;SDS011;73355;49.044;8.686;2023-11-22T14:22:21;2.30;;;1.10;;
83423;SDS011;73355;49.044;8.686;2023-11-22T14:24:50;1.90;;;1.30;;
83423;SDS011;73355;49.044;8.686;2023-11-22T14:27:19;1.80;;;1.20;;
83423;SDS011;73355;49.044;8.686;2023-11-22T14:29:48;1.50;;;1.13;;
83423;SDS011;73355;49.044;8.686;2023-11-22T14:32:18;2.65;;;1.35;;
83423;SDS011;73355;49.044;8.686;2023-11-22T14:34:44;2.85;;;1.10;;
83423;SDS011;73355;49.044;8.686;2023-11-22T14:37:10;4.60;;;1.40;;
83423;SDS011;73355;49.044;8.686;2023-11-22T14:39:36;3.67;;;2.08;;
83423;SDS011;73355;49.044;8.686;2023-11-22T14:42:02;3.38;;;2.05;;
83423;SDS011;73355;49.044;8.686;2023-11-22T14:44:28;4.43;;;2.10;;
83423;SDS011;73355;49.044;8.686;2023-11-22T14:49:18;3.78;;;1.85;;
83423;SDS011;73355;49.044;8.686;2023-11-22T14:51:46;5.70;;;1.85;;
83423;SDS011;73355;49.044;8.686;2023-11-22T14:56:36;2.93;;;1.63;;
83423;SDS011;73355;49.044;8.686;2023-11-22T14:59:03;3.08;;;1.30;;
83423;SDS011;73355;49.044;8.686;2023-11-22T15:03:53;3.03;;;1.40;;
83423;SDS011;73355;49.044;8.686;2023-11-22T15:08:44;2.45;;;1.05;;
83423;SDS011;73355;49.044;8.686;2023-11-22T15:13:36;1.70;;;1.10;;
83423;SDS011;73355;49.044;8.686;2023-11-22T15:18:26;2.05;;;1.00;;
83423;SDS011;73355;49.044;8.686;2023-11-22T15:23:17;1.93;;;1.30;;
83423;SDS011;73355;49.044;8.686;2023-11-22T15:25:44;2.15;;;1.00;;
83423;SDS011;73355;49.044;8.686;2023-11-22T15:30:36;2.95;;;1.30;;
83423;SDS011;73355;49.044;8.686;2023-11-22T15:35:27;5.30;;;1.63;;
83423;SDS011;73355;49.044;8.686;2023-11-22T15:40:17;4.13;;;1.20;;
83423;SDS011;73355;49.044;8.686;2023-11-22T15:42:43;2.17;;;1.40;;
83423;SDS011;73355;49.044;8.686;2023-11-22T15:45:08;1.83;;;1.17;;
83423;SDS011;73355;49.044;8.686;2023-11-22T15:50:02;1.98;;;1.08;;
83423;SDS011;73355;49.044;8.686;2023-11-22T15:52:31;2.33;;;1.00;;
83423;SDS011;73355;49.044;8.686;2023-11-22T15:57:21;2.20;;;1.20;;
83423;SDS011;73355;49.044;8.686;2023-11-22T16:02:14;4.57;;;2.28;;
83423;SDS011;73355;49.044;8.686;2023-11-22T16:04:39;5.90;;;2.10;;
83423;SDS011;73355;49.044;8.686;2023-11-22T16:09:30;3.78;;;2.25;;
83423;SDS011;73355;49.044;8.686;2023-11-22T16:11:56;2.45;;;2.00;;
83423;SDS011;73355;49.044;8.686;2023-11-22T16:14:22;3.25;;;2.17;;
83423;SDS011;73355;49.044;8.686;2023-11-22T16:19:15;2.63;;;1.85;;
83423;SDS011;73355;49.044;8.686;2023-11-22T16:21:40;2.50;;;2.20;;
83423;SDS011;73355;49.044;8.686;2023-11-22T16:24:06;2.83;;;2.00;;
83423;SDS011;73355;49.044;8.686;2023-11-22T16:28:56;3.30;;;2.10;;
83423;SDS011;73355;49.044;8.686;2023-11-22T16:31:22;2.55;;;2.05;;
83423;SDS011;73355;49.044;8.686;2023-11-22T16:36:13;2.17;;;1.50;;
83423;SDS011;73355;49.044;8.686;2023-11-22T16:41:04;2.53;;;1.90;;
83423;SDS011;73355;49.044;8.686;2023-11-22T16:43:30;3.92;;;1.60;;
83423;SDS011;73355;49.044;8.686;2023-11-22T16:48:21;2.67;;;1.80;;
83423;SDS011;73355;49.044;8.686;2023-11-22T16:50:46;3.25;;;1.95;;
83423;SDS011;73355;49.044;8.686;2023-11-22T16:53:11;2.33;;;1.75;;
83423;SDS011;73355;49.044;8.686;2023-11-22T16:55:39;2.08;;;1.85;;
83423;SDS011;73355;49.044;8.686;2023-11-22T16:58:06;2.35;;;1.92;;
83423;SDS011;73355;49.044;8.686;2023-11-22T17:00:31;2.17;;;1.93;;
83423;SDS011;73355;49.044;8.686;2023-11-22T17:02:57;2.30;;;2.05;;
83423;SDS011;73355;49.044;8.686;2023-11-22T17:05:25;2.33;;;2.13;;
83423;SDS011;73355;49.044;8.686;2023-11-22T17:07:51;3.30;;;2.05;;
83423;SDS011;73355;49.044;8.686;2023-11-22T17:10:18;3.28;;;1.95;;
83423;SDS011;73355;49.044;8.686;2023-11-22T17:12:43;2.28;;;1.85;;
83423;SDS011;73355;49.044;8.686;2023-11-22T17:15:09;2.00;;;1.80;;
83423;SDS011;73355;49.044;8.686;2023-11-22T17:17:34;1.65;;;1.55;;
83423;SDS011;73355;49.044;8.686;2023-11-22T17:20:00;1.63;;;1.30;;
83423;SDS011;73355;49.044;8.686;2023-11-22T17:22:26;2.20;;;1.75;;
83423;SDS011;73355;49.044;8.686;2023-11-22T17:24:54;2.00;;;1.70;;
83423;SDS011;73355;49.044;8.686;2023-11-22T17:27:21;2.00;;;1.67;;
83423;SDS011;73355;49.044;8.686;2023-11-22T17:29:47;1.70;;;1.60;;
83423;SDS011;73355;49.044;8.686;2023-11-22T17:32:15;2.08;;;1.88;;
83423;SDS011;73355;49.044;8.686;2023-11-22T17:34:41;4.03;;;2.00;;
83423;SDS011;73355;49.044;8.686;2023-11-22T17:37:06;2.00;;;1.83;;
83423;SDS011;73355;49.044;8.686;2023-11-22T17:39:31;2.80;;;2.23;;
83423;SDS011;73355;49.044;8.686;2023-11-22T17:41:56;1.90;;;1.63;;
83423;SDS011;73355;49.044;8.686;2023-11-22T17:44:22;1.98;;;1.77;;
83423;SDS011;73355;49.044;8.686;2023-11-22T17:46:48;2.08;;;1.80;;
83423;SDS011;73355;49.044;8.686;2023-11-22T17:49:13;2.17;;;1.83;;
83423;SDS011;73355;49.044;8.686;2023-11-22T17:51:39;2.08;;;1.88;;
83423;SDS011;73355;49.044;8.686;2023-11-22T17:54:06;2.47;;;2.28;;
83423;SDS011;73355;49.044;8.686;2023-11-22T17:56:33;2.90;;;2.00;;
83423;SDS011;73355;49.044;8.686;2023-11-22T17:58:59;1.77;;;1.65;;
83423;SDS011;73355;49.044;8.686;2023-11-22T18:01:24;2.13;;;1.85;;
83423;SDS011;73355;49.044;8.686;2023-11-22T18:03:50;2.33;;;1.80;;
83423;SDS011;73355;49.044;8.686;2023-11-22T18:06:15;3.33;;;1.88;;
83423;SDS011;73355;49.044;8.686;2023-11-22T18:08:44;3.00;;;1.50;;
83423;SDS011;73355;49.044;8.686;2023-11-22T18:11:09;3.13;;;1.88;;
83423;SDS011;73355;49.044;8.686;2023-11-22T18:13:35;2.33;;;2.13;;
83423;SDS011;73355;49.044;8.686;2023-11-22T18:16:02;2.58;;;2.10;;
83423;SDS011;73355;49.044;8.686;2023-11-22T18:18:28;1.63;;;1.52;;
83423;SDS011;73355;49.044;8.686;2023-11-22T18:20:53;2.17;;;1.80;;
83423;SDS011;73355;49.044;8.686;2023-11-22T18:23:19;2.30;;;2.07;;
83423;SDS011;73355;49.044;8.686;2023-11-22T18:25:44;2.65;;;1.95;;
83423;SDS011;73355;49.044;8.686;2023-11-22T18:28:09;2.17;;;1.70;;
83423;SDS011;73355;49.044;8.686;2023-11-22T18:30:37;2.40;;;2.17;;
83423;SDS011;73355;49.044;8.686;2023-11-22T18:33:02;3.17;;;2.20;;
83423;SDS011;73355;49.044;8.686;2023-11-22T18:35:29;2.20;;;2.00;;
83423;SDS011;73355;49.044;8.686;2023-11-22T18:37:54;2.85;;;2.65;;
83423;SDS011;73355;49.044;8.686;2023-11-22T18:40:20;2.30;;;2.03;;
83423;SDS011;73355;49.044;8.686;2023-11-22T18:42:45;2.08;;;1.88;;
83423;SDS011;73355;49.044;8.686;2023-11-22T18:45:11;1.63;;;1.52;;